createdAt,value
2022-08-30T00:02:11.715Z,100547.72
2022-08-30T00:04:39.275Z,100550.50
2022-08-30T00:07:06.128Z,100548.22
2022-08-30T00:09:33.018Z,100542.53
2022-08-30T00:11:59.885Z,100547.25
2022-08-30T00:14:27.716Z,100549.84
2022-08-30T00:16:54.639Z,100553.62
2022-08-30T00:19:21.502Z,100552.69
2022-08-30T00:21:48.287Z,100550.41
2022-08-30T00:24:15.121Z,100552.44
2022-08-30T00:26:41.920Z,100558.81
2022-08-30T00:29:08.710Z,100556.97
2022-08-30T00:31:35.498Z,100561.16
2022-08-30T00:34:02.344Z,100555.87
2022-08-30T00:36:29.502Z,100562.50
2022-08-30T00:38:56.370Z,100552.75
2022-08-30T00:41:23.230Z,100556.00
2022-08-30T00:43:49.985Z,100553.91
2022-08-30T00:46:16.824Z,100555.69
2022-08-30T00:48:48.146Z,100552.16
2022-08-30T00:51:16.136Z,100552.28
2022-08-30T00:53:47.717Z,100555.03
2022-08-30T00:56:15.415Z,100558.72
2022-08-30T00:58:45.645Z,100557.91
2022-08-30T01:01:13.567Z,100554.66
2022-08-30T01:03:42.119Z,100556.22
2022-08-30T01:06:09.249Z,100553.72
2022-08-30T01:08:36.121Z,100556.75
2022-08-30T01:11:04.419Z,100555.37
2022-08-30T01:13:32.561Z,100561.09
2022-08-30T01:16:02.675Z,100553.50
2022-08-30T01:18:32.146Z,100556.63
2022-08-30T01:21:07.827Z,100559.37
2022-08-30T01:23:38.336Z,100551.28
2022-08-30T01:26:06.161Z,100558.34
2022-08-30T01:28:33.768Z,100559.13
2022-08-30T01:31:01.812Z,100559.50
2022-08-30T01:33:29.090Z,100543.16
2022-08-30T01:36:04.126Z,100552.03
2022-08-30T01:38:40.108Z,100553.94
2022-08-30T01:41:33.334Z,100546.16
2022-08-30T01:44:03.070Z,100547.88
2022-08-30T01:46:38.834Z,100549.63
2022-08-30T01:49:09.254Z,100546.31
2022-08-30T01:51:36.654Z,100552.44
2022-08-30T01:54:04.180Z,100548.28
2022-08-30T01:56:31.040Z,100543.97
2022-08-30T01:59:02.608Z,100542.84
2022-08-30T02:01:32.433Z,100540.28
2022-08-30T02:04:00.432Z,100541.19
2022-08-30T02:06:27.553Z,100546.44
2022-08-30T02:08:55.449Z,100538.94
2022-08-30T02:11:22.348Z,100544.78
2022-08-30T02:13:49.353Z,100548.03
2022-08-30T02:16:19.170Z,100542.37
2022-08-30T02:18:46.453Z,100538.13
2022-08-30T02:21:13.914Z,100533.75
2022-08-30T02:23:41.384Z,100536.81
2022-08-30T02:26:08.991Z,100533.84
2022-08-30T02:28:36.255Z,100525.72
2022-08-30T02:31:18.085Z,100528.91
2022-08-30T02:33:47.815Z,100533.53
2022-08-30T02:36:15.514Z,100532.53
2022-08-30T02:38:42.263Z,100525.88
2022-08-30T02:41:09.158Z,100531.44
2022-08-30T02:43:35.862Z,100541.31
2022-08-30T02:46:02.727Z,100548.53
2022-08-30T02:48:29.486Z,100546.16
2022-08-30T02:50:56.745Z,100545.78
2022-08-30T02:53:23.907Z,100544.22
2022-08-30T02:55:53.004Z,100540.09
2022-08-30T02:58:19.764Z,100544.16
2022-08-30T03:00:46.516Z,100541.63
2022-08-30T03:03:13.393Z,100545.81
2022-08-30T03:05:40.184Z,100547.50
2022-08-30T03:08:09.810Z,100543.22
2022-08-30T03:10:36.566Z,100550.72
2022-08-30T03:13:03.680Z,100554.09
2022-08-30T03:15:30.467Z,100557.75
2022-08-30T03:17:57.877Z,100549.41
2022-08-30T03:20:25.214Z,100561.25
2022-08-30T03:22:52.386Z,100552.28
2022-08-30T03:25:20.938Z,100556.28
2022-08-30T03:27:48.117Z,100563.38
2022-08-30T03:30:14.971Z,100564.16
2022-08-30T03:32:43.236Z,100565.13
2022-08-30T03:35:10.769Z,100571.03
2022-08-30T03:37:37.834Z,100565.59
2022-08-30T03:40:07.646Z,100568.13
2022-08-30T03:42:35.319Z,100580.16
2022-08-30T03:45:05.121Z,100579.16
2022-08-30T03:47:31.898Z,100579.75
2022-08-30T03:49:58.680Z,100580.28
2022-08-30T03:52:27.830Z,100580.28
2022-08-30T03:54:55.060Z,100593.75
2022-08-30T03:57:24.469Z,100592.09
2022-08-30T03:59:51.902Z,100592.87
2022-08-30T04:02:19.155Z,100595.06
2022-08-30T04:04:45.981Z,100595.75
2022-08-30T04:07:12.975Z,100586.00
2022-08-30T04:09:39.757Z,100594.62
2022-08-30T04:12:06.749Z,100594.47
2022-08-30T04:14:33.548Z,100603.63
2022-08-30T04:17:00.320Z,100604.03
2022-08-30T04:19:27.146Z,100598.47
2022-08-30T04:21:54.602Z,100601.12
2022-08-30T04:24:21.346Z,100599.34
2022-08-30T04:26:48.175Z,100597.88
2022-08-30T04:29:17.819Z,100604.88
2022-08-30T04:31:45.544Z,100600.81
2022-08-30T04:34:13.631Z,100603.78
2022-08-30T04:36:40.564Z,100605.91
2022-08-30T04:39:07.588Z,100611.16
2022-08-30T04:41:36.870Z,100604.25
2022-08-30T04:44:04.048Z,100606.72
2022-08-30T04:46:31.185Z,100620.41
2022-08-30T04:48:57.912Z,100621.59
2022-08-30T04:51:24.649Z,100620.50
2022-08-30T04:53:51.494Z,100627.88
2022-08-30T04:56:22.476Z,100634.47
2022-08-30T04:58:51.863Z,100630.78
2022-08-30T05:01:23.775Z,100630.88
2022-08-30T05:03:52.615Z,100646.66
2022-08-30T05:06:20.085Z,100639.00
2022-08-30T05:08:47.556Z,100635.47
2022-08-30T05:11:15.732Z,100641.03
2022-08-30T05:13:43.842Z,100641.81
2022-08-30T05:16:11.070Z,100634.53
2022-08-30T05:18:37.921Z,100638.69
2022-08-30T05:21:07.622Z,100637.59
2022-08-30T05:23:35.243Z,100632.72
2022-08-30T05:26:16.090Z,100639.22
2022-08-30T05:28:43.378Z,100644.09
2022-08-30T05:31:22.469Z,100643.87
2022-08-30T05:33:50.853Z,100640.97
2022-08-30T05:36:19.392Z,100639.56
2022-08-30T05:38:46.490Z,100633.84
2022-08-30T05:41:13.438Z,100632.69
2022-08-30T05:43:40.815Z,100633.37
2022-08-30T05:46:11.085Z,100637.50
2022-08-30T05:48:39.093Z,100631.94
2022-08-30T05:51:11.702Z,100642.84
2022-08-30T05:53:39.619Z,100633.16
2022-08-30T05:56:11.298Z,100633.53
2022-08-30T05:58:38.671Z,100632.97
2022-08-30T06:01:05.996Z,100635.94
2022-08-30T06:03:33.579Z,100643.78
2022-08-30T06:06:01.124Z,100635.47
2022-08-30T06:08:27.980Z,100639.44
2022-08-30T06:10:55.152Z,100640.03
2022-08-30T06:13:22.513Z,100640.56
2022-08-30T06:15:49.803Z,100644.97
2022-08-30T06:18:16.963Z,100645.56
2022-08-30T06:20:51.412Z,100652.94
2022-08-30T06:23:18.290Z,100647.72
2022-08-30T06:25:45.498Z,100648.19
2022-08-30T06:28:12.899Z,100652.81
2022-08-30T06:30:41.344Z,100648.19
2022-08-30T06:33:08.123Z,100647.72
2022-08-30T06:35:42.181Z,100649.22
2022-08-30T06:38:13.792Z,100649.81
2022-08-30T06:40:40.625Z,100647.91
2022-08-30T06:43:07.464Z,100647.47
2022-08-30T06:45:35.544Z,100651.66
2022-08-30T06:48:02.648Z,100654.19
2022-08-30T06:50:29.827Z,100645.50
2022-08-30T06:52:57.771Z,100654.72
2022-08-30T06:55:24.616Z,100652.09
2022-08-30T06:57:51.431Z,100653.31
2022-08-30T07:00:18.441Z,100642.00
2022-08-30T07:02:45.435Z,100648.88
2022-08-30T07:05:17.999Z,100658.00
2022-08-30T07:07:45.549Z,100656.63
2022-08-30T07:10:12.341Z,100656.16
2022-08-30T07:12:39.041Z,100652.66
2022-08-30T07:15:08.006Z,100657.69
2022-08-30T07:17:54.236Z,100654.41
2022-08-30T07:20:21.763Z,100654.25
2022-08-30T07:22:48.970Z,100653.19
2022-08-30T07:25:16.652Z,100661.56
2022-08-30T07:27:46.773Z,100658.94
2022-08-30T07:30:14.324Z,100656.63
2022-08-30T07:32:41.266Z,100657.63
2022-08-30T07:35:08.493Z,100658.06
2022-08-30T07:37:35.683Z,100651.34
2022-08-30T07:40:04.200Z,100657.19
2022-08-30T07:42:31.043Z,100653.03
2022-08-30T07:44:57.915Z,100663.00
2022-08-30T07:47:24.848Z,100656.06
2022-08-30T07:49:51.772Z,100659.34
2022-08-30T07:52:18.589Z,100657.94
2022-08-30T07:54:45.382Z,100662.06
2022-08-30T07:57:12.662Z,100659.47
2022-08-30T07:59:43.191Z,100649.06
2022-08-30T08:02:10.160Z,100657.59
2022-08-30T08:04:37.075Z,100655.91
2022-08-30T08:07:05.432Z,100656.50
2022-08-30T08:09:34.171Z,100653.44
2022-08-30T08:12:03.765Z,100652.44
2022-08-30T08:14:32.858Z,100649.12
2022-08-30T08:17:00.254Z,100648.91
2022-08-30T08:19:27.398Z,100642.34
2022-08-30T08:22:21.011Z,100642.12
2022-08-30T08:24:47.912Z,100646.66
2022-08-30T08:27:14.757Z,100642.81
2022-08-30T08:29:43.994Z,100646.91
2022-08-30T08:32:11.324Z,100646.78
2022-08-30T08:34:38.279Z,100652.62
2022-08-30T08:37:08.255Z,100645.81
2022-08-30T08:39:36.952Z,100649.88
2022-08-30T08:42:24.033Z,100656.50
2022-08-30T08:45:13.203Z,100649.66
2022-08-30T08:48:01.572Z,100647.84
2022-08-30T08:50:32.245Z,100651.84
2022-08-30T08:53:46.299Z,100646.81
2022-08-30T08:56:17.658Z,100645.75
2022-08-30T08:58:54.534Z,100651.34
2022-08-30T09:01:28.275Z,100635.47
2022-08-30T09:03:58.443Z,100633.50
2022-08-30T09:06:45.109Z,100630.44
2022-08-30T09:09:14.879Z,100634.78
2022-08-30T09:11:44.286Z,100623.69
2022-08-30T09:14:19.322Z,100631.50
2022-08-30T09:16:52.052Z,100618.59
2022-08-30T09:19:41.493Z,100617.59
2022-08-30T09:22:22.653Z,100623.97
2022-08-30T09:24:55.575Z,100613.53
2022-08-30T09:27:31.734Z,100606.66
2022-08-30T09:30:02.011Z,100604.09
2022-08-30T09:32:32.793Z,100604.75
2022-08-30T09:35:00.166Z,100604.31
2022-08-30T09:37:46.189Z,100598.06
2022-08-30T09:40:17.560Z,100594.25
2022-08-30T09:43:01.955Z,100598.31
2022-08-30T09:45:33.853Z,100599.22
2022-08-30T09:48:00.985Z,100589.03
2022-08-30T09:50:37.895Z,100583.41
2022-08-30T09:53:23.328Z,100589.41
2022-08-30T09:56:15.822Z,100595.16
2022-08-30T09:59:10.784Z,100592.28
2022-08-30T10:01:43.487Z,100581.91
2022-08-30T10:04:19.373Z,100585.53
2022-08-30T10:06:54.402Z,100584.69
2022-08-30T10:09:36.474Z,100587.53
2022-08-30T10:12:12.883Z,100579.03
2022-08-30T10:14:48.945Z,100563.22
2022-08-30T10:17:56.220Z,100564.47
2022-08-30T10:20:44.103Z,100568.59
2022-08-30T10:23:22.689Z,100564.78
2022-08-30T10:26:00.296Z,100570.75
2022-08-30T10:28:38.018Z,100567.94
2022-08-30T10:31:42.792Z,100568.41
2022-08-30T10:34:20.930Z,100566.03
2022-08-30T10:37:01.110Z,100560.84
2022-08-30T10:39:34.078Z,100553.56
2022-08-30T10:42:13.877Z,100548.03
2022-08-30T10:44:45.667Z,100546.03
2022-08-30T10:47:29.232Z,100554.09
2022-08-30T10:50:04.938Z,100557.53
2022-08-30T10:52:54.800Z,100556.06
2022-08-30T10:55:26.991Z,100547.03
2022-08-30T10:57:54.109Z,100540.41
2022-08-30T11:00:33.819Z,100547.69
2022-08-30T11:03:19.874Z,100540.34
2022-08-30T11:06:36.524Z,100536.78
2022-08-30T11:09:29.009Z,100541.03
2022-08-30T11:12:16.111Z,100532.84
2022-08-30T11:14:46.543Z,100535.22
2022-08-30T11:17:40.878Z,100539.50
2022-08-30T11:20:28.360Z,100539.13
2022-08-30T11:23:33.019Z,100541.53
2022-08-30T11:26:18.410Z,100530.28
2022-08-30T11:28:47.361Z,100530.06
2022-08-30T11:31:20.374Z,100536.91
2022-08-30T11:33:59.061Z,100528.41
2022-08-30T11:36:37.304Z,100525.09
2022-08-30T11:39:08.649Z,100513.53
2022-08-30T11:41:43.147Z,100514.41
2022-08-30T11:44:24.259Z,100514.47
2022-08-30T11:46:55.278Z,100508.00
2022-08-30T11:49:25.077Z,100504.78
2022-08-30T11:52:28.492Z,100506.00
2022-08-30T11:55:33.164Z,100502.69
2022-08-30T11:58:11.499Z,100497.22
2022-08-30T12:00:52.510Z,100489.44
2022-08-30T12:03:22.331Z,100481.66
2022-08-30T12:05:59.884Z,100493.16
2022-08-30T12:08:36.241Z,100494.31
2022-08-30T12:11:10.789Z,100480.84
2022-08-30T12:13:37.756Z,100486.62
2022-08-30T12:16:30.492Z,100486.38
2022-08-30T12:19:10.172Z,100488.22
2022-08-30T12:21:44.162Z,100480.25
2022-08-30T12:24:24.126Z,100481.56
2022-08-30T12:26:52.719Z,100477.75
2022-08-30T12:29:24.607Z,100478.88
2022-08-30T12:31:58.136Z,100478.50
2022-08-30T12:34:36.420Z,100474.97
2022-08-30T12:37:05.240Z,100478.84
2022-08-30T12:39:43.983Z,100476.25
2022-08-30T12:42:26.999Z,100467.41
2022-08-30T12:45:05.220Z,100466.66
2022-08-30T12:47:44.758Z,100465.44
2022-08-30T12:50:17.363Z,100460.63
2022-08-30T12:52:47.059Z,100459.53
2022-08-30T12:55:23.900Z,100455.13
2022-08-30T12:58:10.933Z,100444.66
2022-08-30T13:00:37.962Z,100447.13
2022-08-30T13:03:24.810Z,100436.09
2022-08-30T13:05:53.151Z,100433.34
2022-08-30T13:08:42.957Z,100435.31
2022-08-30T13:11:25.120Z,100432.91
2022-08-30T13:14:18.537Z,100423.19
2022-08-30T13:16:46.348Z,100424.66
2022-08-30T13:19:22.889Z,100423.87
2022-08-30T13:21:58.718Z,100423.16
2022-08-30T13:24:26.179Z,100431.03
2022-08-30T13:26:55.858Z,100424.97
2022-08-30T13:29:27.086Z,100417.19
2022-08-30T13:31:55.354Z,100425.19
2022-08-30T13:34:23.048Z,100427.28
2022-08-30T13:36:54.393Z,100426.53
2022-08-30T13:39:21.954Z,100423.41
2022-08-30T13:41:49.303Z,100423.50
2022-08-30T13:44:16.747Z,100421.94
2022-08-30T13:46:52.529Z,100415.78
2022-08-30T13:49:45.760Z,100419.28
2022-08-30T13:52:21.691Z,100415.09
2022-08-30T13:54:56.608Z,100430.37
2022-08-30T14:00:19.434Z,100423.09
2022-08-30T14:02:53.915Z,100417.25
2022-08-30T14:05:48.915Z,100409.16
2022-08-30T14:11:18.660Z,100416.47
2022-08-30T14:16:36.443Z,100418.44
2022-08-30T14:19:03.607Z,100415.53
2022-08-30T14:21:32.847Z,100412.63
2022-08-30T14:23:59.929Z,100394.38
2022-08-30T14:26:35.208Z,100400.97
2022-08-30T14:29:08.966Z,100394.00
2022-08-30T14:31:37.353Z,100386.37
2022-08-30T14:34:05.524Z,100391.12
2022-08-30T14:36:35.057Z,100390.47
2022-08-30T14:39:06.285Z,100381.44
2022-08-30T14:41:43.441Z,100383.53
2022-08-30T14:44:12.262Z,100382.59
2022-08-30T14:46:39.058Z,100387.22
2022-08-30T14:49:07.520Z,100381.47
2022-08-30T14:51:37.075Z,100389.53
2022-08-30T14:54:04.548Z,100384.94
2022-08-30T14:56:31.563Z,100383.06
2022-08-30T14:59:00.761Z,100383.03
2022-08-30T15:01:28.029Z,100372.69
2022-08-30T15:03:54.939Z,100367.84
2022-08-30T15:06:22.797Z,100367.00
2022-08-30T15:08:53.539Z,100371.16
2022-08-30T15:11:21.816Z,100375.75
2022-08-30T15:13:48.955Z,100372.50
2022-08-30T15:16:29.496Z,100378.41
2022-08-30T15:18:58.244Z,100370.50
2022-08-30T15:21:31.214Z,100370.94
2022-08-30T15:24:02.226Z,100367.88
2022-08-30T15:26:29.493Z,100376.59
2022-08-30T15:28:57.052Z,100369.97
2022-08-30T15:31:28.320Z,100367.25
2022-08-30T15:33:55.370Z,100370.59
2022-08-30T15:36:24.270Z,100363.06
2022-08-30T15:38:52.819Z,100370.19
2022-08-30T15:41:19.544Z,100369.06
2022-08-30T15:43:46.737Z,100369.47
2022-08-30T15:46:25.703Z,100362.13
2022-08-30T15:49:01.298Z,100365.78
2022-08-30T15:51:30.655Z,100366.63
2022-08-30T15:53:58.290Z,100364.88
2022-08-30T15:56:25.861Z,100369.06
2022-08-30T15:58:53.043Z,100369.63
2022-08-30T16:01:30.063Z,100368.19
2022-08-30T16:03:57.443Z,100363.78
2022-08-30T16:06:28.276Z,100356.88
2022-08-30T16:08:56.098Z,100357.75
2022-08-30T16:11:25.259Z,100364.47
2022-08-30T16:13:53.608Z,100353.38
2022-08-30T16:16:21.382Z,100354.03
2022-08-30T16:18:53.695Z,100357.84
2022-08-30T16:21:30.439Z,100352.41
2022-08-30T16:24:00.720Z,100352.47
2022-08-30T16:26:29.069Z,100347.31
2022-08-30T16:28:56.605Z,100348.81
2022-08-30T16:31:24.525Z,100340.59
2022-08-30T16:33:53.176Z,100346.50
2022-08-30T16:36:22.798Z,100355.09
2022-08-30T16:38:53.451Z,100343.97
2022-08-30T16:41:22.510Z,100347.41
2022-08-30T16:43:53.148Z,100347.47
2022-08-30T16:46:27.339Z,100344.28
2022-08-30T16:48:57.448Z,100336.94
2022-08-30T16:51:27.167Z,100345.06
2022-08-30T16:53:58.906Z,100336.75
2022-08-30T16:56:27.535Z,100338.44
2022-08-30T16:59:02.040Z,100344.69
2022-08-30T17:01:34.809Z,100347.78
2022-08-30T17:04:02.879Z,100350.50
2022-08-30T17:06:29.980Z,100350.22
2022-08-30T17:08:57.143Z,100350.62
2022-08-30T17:11:24.967Z,100358.41
2022-08-30T17:13:52.276Z,100354.59
2022-08-30T17:16:22.645Z,100357.34
2022-08-30T17:18:55.870Z,100357.81
2022-08-30T17:21:27.171Z,100362.63
2022-08-30T17:23:53.977Z,100362.75
2022-08-30T17:26:25.296Z,100361.66
2022-08-30T17:28:53.137Z,100361.31
2022-08-30T17:31:20.774Z,100363.28
2022-08-30T17:33:49.246Z,100373.19
2022-08-30T17:36:16.756Z,100375.06
2022-08-30T17:38:45.058Z,100378.16
2022-08-30T17:41:13.199Z,100379.09
2022-08-30T17:43:40.291Z,100378.53
2022-08-30T17:46:20.756Z,100388.75
2022-08-30T17:48:47.803Z,100396.84
2022-08-30T17:51:24.836Z,100398.97
2022-08-30T17:53:51.677Z,100400.34
2022-08-30T17:56:18.827Z,100409.09
2022-08-30T17:58:47.199Z,100404.28
2022-08-30T18:01:15.674Z,100408.41
2022-08-30T18:03:45.558Z,100413.09
2022-08-30T18:06:14.102Z,100409.13
2022-08-30T18:08:41.018Z,100403.63
2022-08-30T18:11:08.725Z,100408.09
2022-08-30T18:13:35.633Z,100409.78
2022-08-30T18:16:03.809Z,100415.94
2022-08-30T18:18:31.541Z,100413.75
2022-08-30T18:20:59.042Z,100416.69
2022-08-30T18:23:27.131Z,100416.19
2022-08-30T18:26:00.033Z,100420.41
2022-08-30T18:28:27.850Z,100434.75
2022-08-30T18:30:57.136Z,100432.16
2022-08-30T18:33:28.607Z,100437.88
2022-08-30T18:35:55.814Z,100444.84
2022-08-30T18:38:25.325Z,100449.53
2022-08-30T18:41:01.964Z,100451.69
2022-08-30T18:43:30.559Z,100456.69
2022-08-30T18:46:02.573Z,100460.72
2022-08-30T18:48:30.311Z,100461.66
2022-08-30T18:50:57.300Z,100455.25
2022-08-30T18:56:12.414Z,100468.00
2022-08-30T18:58:44.559Z,100465.31
2022-08-30T19:01:12.903Z,100462.41
2022-08-30T19:03:40.828Z,100461.84
2022-08-30T19:06:12.025Z,100471.16
2022-08-30T19:08:40.487Z,100466.72
2022-08-30T19:11:09.136Z,100467.19
2022-08-30T19:13:37.374Z,100471.28
2022-08-30T19:16:06.910Z,100477.53
2022-08-30T19:18:33.788Z,100474.72
2022-08-30T19:21:04.387Z,100468.34
2022-08-30T19:23:34.445Z,100471.59
2022-08-30T19:26:01.627Z,100468.56
2022-08-30T19:28:28.813Z,100470.06
2022-08-30T19:30:55.719Z,100468.88
2022-08-30T19:33:22.735Z,100474.63
2022-08-30T19:35:51.356Z,100468.31
2022-08-30T19:38:19.023Z,100480.19
2022-08-30T19:40:53.890Z,100476.06
2022-08-30T19:43:21.527Z,100473.31
2022-08-30T19:45:53.878Z,100471.37
2022-08-30T19:48:22.295Z,100469.25
2022-08-30T19:50:49.664Z,100467.50
2022-08-30T19:53:17.023Z,100467.63
2022-08-30T19:55:44.308Z,100478.06
2022-08-30T19:58:14.296Z,100473.72
2022-08-30T20:00:54.201Z,100474.66
2022-08-30T20:03:23.014Z,100480.16
2022-08-30T20:05:49.897Z,100483.69
2022-08-30T20:08:16.740Z,100492.72
2022-08-30T20:10:44.812Z,100477.75
2022-08-30T20:13:11.675Z,100472.03
2022-08-30T20:15:38.767Z,100482.06
2022-08-30T20:18:14.419Z,100478.06
2022-08-30T20:20:49.496Z,100488.50
2022-08-30T20:23:21.553Z,100485.91
2022-08-30T20:24:29.671Z,100459.28
2022-08-30T20:25:55.730Z,100485.25
2022-08-30T20:28:24.781Z,100480.53
2022-08-30T20:30:52.492Z,100488.03
2022-08-30T20:33:20.890Z,100484.47
2022-08-30T20:35:49.531Z,100488.16
2022-08-30T20:38:21.501Z,100480.31
2022-08-30T20:40:51.275Z,100490.03
2022-08-30T20:43:21.032Z,100481.66
2022-08-30T20:45:48.527Z,100489.41
2022-08-30T20:48:15.993Z,100480.09
2022-08-30T20:50:43.321Z,100474.81
2022-08-30T20:53:10.893Z,100475.53
2022-08-30T20:55:46.311Z,100477.63
2022-08-30T20:58:14.624Z,100468.22
2022-08-30T21:00:45.672Z,100465.00
2022-08-30T21:03:25.888Z,100478.03
2022-08-30T21:05:55.357Z,100477.37
2022-08-30T21:08:22.400Z,100479.19
2022-08-30T21:10:49.321Z,100471.31
2022-08-30T21:13:16.093Z,100467.66
2022-08-30T21:15:46.231Z,100473.56
2022-08-30T21:18:14.575Z,100469.59
2022-08-30T21:20:42.186Z,100469.56
2022-08-30T21:23:09.167Z,100470.28
2022-08-30T21:25:39.143Z,100466.19
2022-08-30T21:28:07.178Z,100454.25
2022-08-30T21:30:35.599Z,100456.09
2022-08-30T21:33:06.972Z,100453.31
2022-08-30T21:35:53.318Z,100452.28
2022-08-30T21:38:20.405Z,100453.31
2022-08-30T21:40:48.668Z,100456.41
2022-08-30T21:43:15.820Z,100448.28
2022-08-30T21:45:44.777Z,100445.53
2022-08-30T21:48:13.257Z,100447.59
2022-08-30T21:50:45.813Z,100447.59
2022-08-30T21:53:15.385Z,100450.44
2022-08-30T21:55:43.959Z,100451.41
2022-08-30T21:58:11.261Z,100447.78
2022-08-30T22:00:38.044Z,100452.38
2022-08-30T22:03:04.885Z,100450.56
2022-08-30T22:05:31.733Z,100455.84
2022-08-30T22:07:58.714Z,100460.22
2022-08-30T22:10:28.109Z,100452.09
2022-08-30T22:12:56.784Z,100453.13
2022-08-30T22:15:24.244Z,100443.91
2022-08-30T22:17:53.649Z,100446.91
2022-08-30T22:20:20.384Z,100447.94
2022-08-30T22:22:47.545Z,100448.03
2022-08-30T22:25:14.345Z,100454.00
2022-08-30T22:27:41.127Z,100452.44
2022-08-30T22:30:08.313Z,100449.59
2022-08-30T22:32:38.005Z,100452.75
2022-08-30T22:35:05.143Z,100454.00
2022-08-30T22:37:32.408Z,100456.63
2022-08-30T22:39:59.206Z,100455.53
2022-08-30T22:42:26.055Z,100461.31
2022-08-30T22:44:52.873Z,100449.00
2022-08-30T22:47:19.606Z,100462.84
2022-08-30T22:49:46.406Z,100458.84
2022-08-30T22:52:14.477Z,100452.22
2022-08-30T22:54:41.347Z,100454.75
2022-08-30T22:57:08.185Z,100455.53
2022-08-30T22:59:35.734Z,100454.03
2022-08-30T23:02:02.708Z,100451.25
2022-08-30T23:04:30.148Z,100450.34
2022-08-30T23:06:56.990Z,100450.81
2022-08-30T23:09:23.719Z,100450.81
2022-08-30T23:11:50.506Z,100453.78
2022-08-30T23:14:17.306Z,100449.31
2022-08-30T23:16:44.190Z,100453.69
2022-08-30T23:19:10.991Z,100452.06
2022-08-30T23:21:37.936Z,100445.16
2022-08-30T23:24:23.506Z,100453.47
2022-08-30T23:27:09.196Z,100449.06
2022-08-30T23:29:55.079Z,100450.75
2022-08-30T23:32:41.197Z,100443.66
2022-08-30T23:35:29.837Z,100442.41
2022-08-30T23:38:19.213Z,100444.81
2022-08-30T23:41:04.812Z,100442.22
2022-08-30T23:43:50.511Z,100439.19
2022-08-30T23:46:36.091Z,100428.50
2022-08-30T23:49:21.641Z,100427.53
2022-08-30T23:52:07.339Z,100432.56
2022-08-30T23:54:57.340Z,100428.59
2022-08-30T23:57:43.459Z,100431.84
